David Pulisic

Olheiro - DC United
23 Abr 2028
Domingo
Processo

Personalidade

Adaptabilidade (5) Ambição (6) Controvérsia (1) Lealdade (3) Pressão (15) Profissionalismo (3) Espírito Esportivo (1) Temperamento (13)

Perfil

Estilo de Treinamento Democrático
Licença Nacional A
Determinação 7
Gestão de Pessoas 8
Motivação 7
Disciplina 7
Satisfação no Trabalho
100%
Fadiga
0%
Função Olheiro
Salário 61.3K p/s
Contrato 14.03.2029

Desempenho

Comportamento Bom
Eficácia do Treinamento
38%
Desenvolvimento do Jogador
20%
Prevenção de Lesões
45%
Implementação Tática
30%

Eventos Recentes

Participou de uma reunião de recrutamento agora
Participou de uma reunião de recrutamento 7d atrás
Participou de uma reunião de recrutamento 7d atrás
Recomendou um alvo de transferência 7d atrás
Participou de uma reunião de recrutamento 14d atrás
Participou de uma reunião de recrutamento 14d atrás
Recomendou um alvo de transferência 14d atrás
Recomendou um alvo de transferência 21d atrás

Monitorando agora

55
Jogador Clube Status Habilidade Confiança Observado Última observação Último voto
David Poreba Chicago Fire Ativo 91 / 93 62% 1 20.03.2028 Aprovar
Malik Mothersille Stockport County Ativo 126 / 127 40% 1 07.07.2027 -
Scott Twine Bristol City Ativo 131 / 124 40% 1 07.07.2027 -
Marcelo Allende Mamelodi Sundowns Ativo 121 / 116 40% 1 13.02.2027 -
Mohamed-Ali Cho Hull City Ativo 131 / 138 40% 1 13.02.2027 -
Callum O'Hare Sheffield United Ativo 125 / 134 40% 1 12.02.2027 -
Williams Mabunda Ajax Cape Town Ativo 132 / 111 40% 1 11.02.2027 -
Dara O'Shea Ipswich Town Ativo 136 / 132 40% 1 10.02.2027 -
Lewis Bate Stockport County Ativo 125 / 129 40% 1 10.02.2027 -
Arijanet Murić Sassuolo Ativo 145 / 149 40% 1 08.02.2027 -
Dwight McNeil Crystal Palace Ativo 134 / 131 40% 1 08.02.2027 -
Alexandr Koryakin Krasnodar Ativo 100 / 122 40% 1 05.02.2027 -
Heorhii Yermakov Metalist Ativo 117 / 130 40% 2 03.02.2027 -
Ivan Pakholiuk Kolos Ativo 105 / 103 40% 1 03.02.2027 -
Gianmarco Vannucchi Benevento Ativo 119 / 122 40% 1 01.02.2027 -
Richard Ludha MFK Skalica Ativo 107 / 101 40% 1 01.02.2027 -
Germán Berterame Inter Miami CF Ativo 128 / 133 40% 1 31.01.2027 -
Amin Sarr Hellas Verona Ativo 126 / 126 40% 1 31.01.2027 -
Alexey Miranchuk Atlanta United FC Ativo 146 / 133 40% 1 27.01.2027 -
Arthur Beroe Ativo 120 / 102 40% 2 26.01.2027 -
Che Adams Torino Ativo 140 / 139 40% 1 26.01.2027 -
Giacomo Raspadori Atalanta Ativo 155 / 143 40% 1 26.01.2027 -
Rustam Yatimov Rostov Ativo 132 / 112 40% 1 26.01.2027 -
Rushwin Dortley Kaizer Chiefs Ativo 128 / 100 40% 1 24.01.2027 -
Nadir Zortea Bologna Ativo 129 / 133 40% 1 22.01.2027 -
Adis Jašić Zamalek Ativo 136 / 115 40% 1 22.01.2027 -
Zakaria Aboukhlal Torino Ativo 138 / 134 40% 1 19.01.2027 -
Jesus Ferreira Seattle Sounders Ativo 122 / 119 40% 2 17.01.2027 -
Petar Musa FC Dallas Ativo 138 / 144 40% 1 17.01.2027 -
Sipho Chaine Orlando Pirates Ativo 116 / 117 40% 1 15.01.2027 -
Dayne St. Clair Inter Miami CF Ativo 125 / 126 40% 1 15.01.2027 -
Samu Maccabi Netanya Ativo 126 / 110 40% 1 12.01.2027 -
Álex Centelles Levski Ativo 124 / 120 40% 2 08.01.2027 -
Angus Gunn San Jose Earthquakes Ativo 116 / 129 40% 1 07.01.2027 -
Roman Celentano FC Cincinnati Ativo 118 / 121 40% 1 02.01.2027 -
Patrick Schulte Columbus Crew Ativo 118 / 115 40% 1 01.01.2027 -
Mirlind Daku Spartak Moscow Ativo 142 / 127 40% 1 01.01.2027 -
Derry Scherhant SC Freiburg Ativo 120 / 118 40% 1 01.01.2027 -
Morgan Guilavogui Real Salt Lake Ativo 117 / 118 40% 1 30.12.2026 Mais informações
Martín Ojeda Orlando City Ativo 135 / 144 40% 2 27.12.2026 -
Mandla Kekana Ajax Cape Town Ativo 107 / 98 40% 3 26.12.2026 -
David Ozoh Derby County Ativo 125 / 133 40% 1 24.12.2026 -
Lebogang Dolly Free State Stars Ativo 100 / 109 40% 1 23.12.2026 -
Oliver Arblaster Sheffield United Ativo 130 / 133 40% 2 15.12.2026 -
Nikita Krivtsov Krasnodar Ativo 129 / 139 40% 1 15.12.2026 -
Ammar Ramadan DAC Dunajska Streda Ativo 115 / 114 40% 1 10.12.2026 -
Arsen Adamov Akhmat Grozny Ativo 108 / 114 40% 1 10.12.2026 -
Alexandr Chernikov Krasnodar Ativo 121 / 123 40% 1 07.12.2026 -
Daniel Karlsbakk Sarpsborg 08 Ativo 119 / 109 40% 1 02.11.2026 -
Andrés Herrera Columbus Crew Ativo 133 / 123 40% 1 07.10.2026 -
João Félix Dinamo Moscow Ativo 151 / 139 40% 1 21.09.2026 -
Dániel Gazdag New England Revolution Ativo 137 / 132 40% 1 17.09.2026 -
Dejan Joveljić Seattle Sounders Ativo 125 / 130 40% 1 08.09.2026 -
Myrto Uzuni Austin FC Ativo 131 / 141 40% 1 08.09.2026 -
Princewill Ehibhatiomhan Southampton Ativo 93 / 87 40% 1 01.08.2026 -